Time;durP1;ratioP1;P1;durP2;ratioP2;P2;SDS_P1;SDS_P2;PMS_P1;PMS_P2;Temp;Humidity;BMP_temperature;BMP_pressure;BME280_temperature;BME280_humidity;BME280_pressure;Samples;Min_cycle;Max_cycle;Signal;HPM_P1;HPM_P2
2022/04/21 00:00:21;;;;;;;30.73;28.92;;;8.60;67.10;;;;;;5094309;28;20283;-73
2022/04/21 00:02:48;;;;;;;29.58;27.63;;;8.50;67.70;;;;;;5094691;28;20216;-73
2022/04/21 00:05:15;;;;;;;29.77;27.98;;;8.50;68.10;;;;;;5094899;28;20201;-73
2022/04/21 00:07:42;;;;;;;29.70;27.95;;;8.50;67.80;;;;;;5094580;28;20194;-73
2022/04/21 00:10:10;;;;;;;29.90;27.92;;;8.40;68.00;;;;;;5094216;28;20225;-73
2022/04/21 00:12:37;;;;;;;28.52;26.88;;;8.30;68.20;;;;;;5094409;28;20196;-73
2022/04/21 00:15:06;;;;;;;29.70;27.80;;;8.30;68.20;;;;;;5094500;28;20240;-73
2022/04/21 00:17:33;;;;;;;28.27;26.65;;;8.20;68.50;;;;;;5094627;28;20199;-73
2022/04/21 00:20:00;;;;;;;30.58;28.90;;;8.20;68.70;;;;;;5093413;28;20206;-73
2022/04/21 00:25:12;;;;;;;29.38;27.63;;;8.10;69.30;;;;;;5094401;28;20202;-73
2022/04/21 00:27:40;;;;;;;29.42;27.63;;;8.00;69.30;;;;;;5094324;28;20294;-73
2022/04/21 00:30:09;;;;;;;29.20;27.40;;;8.00;69.70;;;;;;5093318;28;20277;-73
2022/04/21 00:32:37;;;;;;;29.40;27.40;;;7.90;70.40;;;;;;5094074;28;20231;-73
2022/04/21 00:35:05;;;;;;;29.80;27.85;;;7.90;70.60;;;;;;5094274;28;20675;-73
2022/04/21 00:37:33;;;;;;;28.55;26.75;;;7.90;70.80;;;;;;5094182;28;20201;-73
2022/04/21 00:40:00;;;;;;;30.05;28.15;;;7.80;70.30;;;;;;5093620;28;20241;-73
2022/04/21 00:42:27;;;;;;;31.15;29.17;;;7.80;70.40;;;;;;5094389;28;20199;-73
2022/04/21 00:44:54;;;;;;;29.15;27.40;;;7.80;70.60;;;;;;5093999;28;20198;-73
2022/04/21 00:47:22;;;;;;;29.33;27.52;;;7.70;70.70;;;;;;5093963;28;20198;-73
2022/04/21 00:49:49;;;;;;;29.55;27.60;;;7.70;70.80;;;;;;5093458;28;20195;-72
2022/04/21 00:52:16;;;;;;;30.27;28.40;;;7.70;71.00;;;;;;5094105;28;20285;-73
2022/04/21 00:54:44;;;;;;;30.27;28.38;;;7.60;71.50;;;;;;5093576;28;20268;-73
2022/04/21 00:57:12;;;;;;;29.17;27.25;;;7.60;71.60;;;;;;5093711;28;20197;-73
2022/04/21 00:59:39;;;;;;;30.33;28.52;;;7.60;71.90;;;;;;5093000;28;20321;-73
2022/04/21 01:04:52;;;;;;;29.00;27.30;;;7.50;72.40;;;;;;5093574;28;20226;-73
2022/04/21 01:07:20;;;;;;;28.95;27.15;;;7.50;72.60;;;;;;5093571;28;20203;-73
2022/04/21 01:09:47;;;;;;;29.02;26.98;;;7.50;72.80;;;;;;5092851;28;20658;-73
2022/04/21 01:12:15;;;;;;;30.10;28.30;;;7.50;72.70;;;;;;5093512;28;20206;-73
2022/04/21 01:14:43;;;;;;;29.52;27.73;;;7.50;72.90;;;;;;5093223;28;20218;-73
2022/04/21 01:17:10;;;;;;;29.75;28.05;;;7.40;72.90;;;;;;5093411;28;20196;-73
2022/04/21 01:19:37;;;;;;;29.25;27.40;;;7.40;73.10;;;;;;5092408;28;20282;-73
2022/04/21 01:22:06;;;;;;;28.70;27.02;;;7.40;72.80;;;;;;5093355;28;20201;-72
2022/04/21 01:24:32;;;;;;;30.08;28.08;;;7.40;72.70;;;;;;5093119;28;20213;-72
2022/04/21 01:27:01;;;;;;;29.90;27.90;;;7.40;72.70;;;;;;5093146;28;20291;-72
2022/04/21 01:29:28;;;;;;;28.90;27.10;;;7.30;73.00;;;;;;5092590;28;20198;-73
2022/04/21 01:31:55;;;;;;;29.88;27.88;;;7.20;73.40;;;;;;5093256;28;20603;-73
2022/04/21 01:34:22;;;;;;;30.92;29.02;;;7.20;73.60;;;;;;5093053;28;20233;-73
2022/04/21 01:42:31;;;;;;;30.23;28.25;;;7.00;74.10;;;;;;5049881;28;20196;-73
2022/04/21 01:44:58;;;;;;;30.38;28.48;;;7.00;74.10;;;;;;5076980;28;20245;-73
2022/04/21 01:47:25;;;;;;;29.92;28.05;;;7.10;74.00;;;;;;5092900;28;20196;-73
2022/04/21 01:49:51;;;;;;;29.00;27.20;;;7.00;74.10;;;;;;5092167;28;20198;-73
2022/04/21 01:52:18;;;;;;;29.30;27.30;;;7.00;74.30;;;;;;5092869;28;20199;-73
2022/04/21 01:54:50;;;;;;;30.58;28.67;;;7.00;74.30;;;;;;5092624;28;20225;-73
2022/04/21 01:57:17;;;;;;;29.60;27.67;;;6.90;74.50;;;;;;5092798;28;20395;-73
2022/04/21 01:59:44;;;;;;;29.95;27.80;;;6.90;74.60;;;;;;5091922;28;20201;-73
2022/04/21 02:02:10;;;;;;;28.67;26.98;;;6.90;74.60;;;;;;5092703;28;20670;-73
2022/04/21 02:04:37;;;;;;;30.17;28.23;;;6.90;74.80;;;;;;5092587;28;20219;-73
2022/04/21 02:07:05;;;;;;;29.45;27.65;;;6.90;75.50;;;;;;5092532;28;20193;-73
2022/04/21 02:09:32;;;;;;;29.30;27.60;;;6.90;75.10;;;;;;5092050;28;20204;-73
2022/04/21 02:12:01;;;;;;;31.50;29.50;;;6.90;75.20;;;;;;5092564;28;20207;-73
2022/04/21 02:14:28;;;;;;;29.77;27.95;;;7.00;75.40;;;;;;5092137;28;20229;-73
2022/04/21 02:16:55;;;;;;;29.95;27.95;;;7.00;75.40;;;;;;5092512;28;20212;-73
2022/04/21 02:19:22;;;;;;;29.60;27.80;;;7.00;75.40;;;;;;5091239;28;20221;-73
2022/04/21 02:21:48;;;;;;;31.25;29.30;;;7.00;75.20;;;;;;5092302;28;20286;-73
2022/04/21 02:24:15;;;;;;;30.67;28.67;;;7.00;75.30;;;;;;5092165;28;20692;-73
2022/04/21 02:26:42;;;;;;;30.35;28.38;;;6.90;75.50;;;;;;5092376;28;20550;-73
2022/04/21 02:29:10;;;;;;;30.73;28.88;;;6.90;75.60;;;;;;5091572;28;20663;-73
2022/04/21 02:31:37;;;;;;;30.85;28.75;;;6.90;75.80;;;;;;5092417;28;20679;-73
2022/04/21 02:34:04;;;;;;;30.50;28.60;;;6.80;76.00;;;;;;5092201;28;20713;-73
2022/04/21 02:36:31;;;;;;;29.80;27.98;;;6.90;75.90;;;;;;5092248;28;20198;-72
2022/04/21 02:38:58;;;;;;;30.30;28.45;;;6.80;76.00;;;;;;5092229;28;20288;-72
2022/04/21 02:41:26;;;;;;;30.83;29.02;;;6.80;76.20;;;;;;5091795;28;20613;-73
2022/04/21 02:43:53;;;;;;;30.58;28.70;;;6.70;76.40;;;;;;5092002;28;20751;-73
2022/04/21 02:46:24;;;;;;;31.38;29.08;;;6.70;76.70;;;;;;5092170;28;20759;-73
2022/04/21 02:48:51;;;;;;;30.25;28.45;;;6.60;76.90;;;;;;5092076;28;20193;-73
2022/04/21 02:51:17;;;;;;;29.88;27.90;;;6.60;77.30;;;;;;5091754;28;20637;-72
2022/04/21 02:59:13;;;;;;;30.48;28.48;;;6.60;77.80;;;;;;5095697;28;20191;-73
2022/04/21 03:01:41;;;;;;;31.10;29.00;;;6.50;77.50;;;;;;5095911;28;20210;-73
2022/04/21 03:04:08;;;;;;;29.65;27.70;;;6.50;77.50;;;;;;5096023;28;20222;-73
2022/04/21 03:06:34;;;;;;;32.15;29.95;;;6.50;77.50;;;;;;5095986;28;20192;-73
2022/04/21 03:09:01;;;;;;;33.30;31.10;;;6.50;77.60;;;;;;5095798;28;20228;-72
2022/04/21 03:11:29;;;;;;;31.05;28.95;;;6.50;77.70;;;;;;5095512;28;20653;-72
2022/04/21 03:13:56;;;;;;;34.83;32.42;;;6.50;77.90;;;;;;5095854;28;20226;-72
2022/04/21 03:16:23;;;;;;;30.05;28.25;;;6.50;77.90;;;;;;5095625;28;20292;-73
2022/04/21 03:18:51;;;;;;;30.52;28.52;;;6.40;78.00;;;;;;5095389;28;20261;-73
2022/04/21 03:24:20;;;;;;;32.35;30.15;;;6.40;78.20;;;;;;5095676;28;20322;-73
2022/04/21 03:26:47;;;;;;;32.80;30.45;;;6.40;78.30;;;;;;5095734;28;20211;-72
2022/04/21 03:29:14;;;;;;;33.08;30.88;;;6.50;78.10;;;;;;5095002;28;20206;-72
2022/04/21 03:31:43;;;;;;;31.33;29.33;;;6.50;78.10;;;;;;5095460;28;20681;-73
2022/04/21 03:34:12;;;;;;;35.33;32.58;;;6.40;78.10;;;;;;5095091;28;20231;-72
2022/04/21 03:36:40;;;;;;;32.30;30.20;;;6.30;78.50;;;;;;5095445;28;20201;-73
2022/04/21 03:39:07;;;;;;;32.90;30.40;;;6.30;79.00;;;;;;5094987;28;20206;-72
2022/04/21 03:41:34;;;;;;;33.13;30.90;;;6.30;79.20;;;;;;5095246;28;20737;-73
2022/04/21 03:44:01;;;;;;;33.70;31.25;;;6.20;79.70;;;;;;5094960;28;20769;-73
2022/04/21 03:46:27;;;;;;;33.25;30.80;;;6.20;79.70;;;;;;5095112;28;20296;-72
2022/04/21 03:48:54;;;;;;;34.83;32.33;;;6.30;79.20;;;;;;5095097;28;20284;-73
2022/04/21 03:51:24;;;;;;;32.33;30.13;;;6.20;79.20;;;;;;5094596;28;20285;-73
2022/04/21 03:53:51;;;;;;;33.80;31.60;;;6.20;79.20;;;;;;5094810;28;20303;-73
2022/04/21 03:56:18;;;;;;;32.17;29.88;;;6.10;79.60;;;;;;5095167;28;20211;-73
2022/04/21 03:58:45;;;;;;;34.45;31.95;;;6.00;80.00;;;;;;5094735;28;20198;-73
2022/04/21 04:01:12;;;;;;;36.60;34.50;;;5.90;80.30;;;;;;5094382;28;20203;-73
2022/04/21 04:03:38;;;;;;;34.80;32.50;;;5.90;80.60;;;;;;5094714;28;20723;-73
2022/04/21 04:10:51;;;;;;;34.13;31.75;;;5.90;80.90;;;;;;5094252;28;20191;-73
2022/04/21 04:11:38;;;;;;;36.55;34.05;;;5.90;81.40;;;;;;5094718;28;20205;-72
2022/04/21 04:14:06;;;;;;;35.60;32.40;;;5.90;81.20;;;;;;5094811;28;20312;-73
2022/04/21 04:16:34;;;;;;;34.10;31.90;;;6.00;81.00;;;;;;5094570;28;20195;-73
2022/04/21 04:19:03;;;;;;;33.97;31.77;;;6.00;80.60;;;;;;5094135;28;20250;-73
2022/04/21 04:21:31;;;;;;;35.88;32.92;;;6.00;80.40;;;;;;5094312;28;20247;-73
2022/04/21 04:23:59;;;;;;;34.60;32.40;;;6.00;80.80;;;;;;5094144;28;20718;-73
2022/04/21 04:26:26;;;;;;;35.17;32.78;;;6.00;80.60;;;;;;5094624;28;20218;-72
2022/04/21 04:28:53;;;;;;;34.13;31.73;;;6.10;80.40;;;;;;5094393;28;20203;-73
2022/04/21 04:31:20;;;;;;;34.10;31.70;;;6.00;80.40;;;;;;5093777;28;20283;-73
2022/04/21 04:33:47;;;;;;;32.80;30.48;;;5.90;80.80;;;;;;5094241;28;20714;-73
2022/04/21 04:36:16;;;;;;;36.17;33.22;;;5.90;81.10;;;;;;5094145;28;20195;-73
2022/04/21 04:38:43;;;;;;;35.90;33.50;;;5.90;81.30;;;;;;5094144;28;20197;-73
2022/04/21 04:43:56;;;;;;;36.78;34.47;;;5.90;81.50;;;;;;5094233;28;20216;-72
2022/04/21 04:46:38;;;;;;;35.30;32.90;;;6.00;81.30;;;;;;5094056;28;20205;-73
2022/04/21 04:49:06;;;;;;;36.08;33.67;;;6.10;81.00;;;;;;5093669;28;20205;-73
2022/04/21 04:51:34;;;;;;;35.20;33.10;;;6.20;80.70;;;;;;5093741;28;20199;-73
2022/04/21 04:54:05;;;;;;;36.13;33.72;;;6.20;80.50;;;;;;5093557;28;20224;-72
2022/04/21 04:56:33;;;;;;;35.90;33.60;;;6.30;80.20;;;;;;5093911;28;20295;-73
2022/04/21 04:59:00;;;;;;;39.20;35.90;;;6.40;79.80;;;;;;5093760;28;20571;-73
2022/04/21 05:01:31;;;;;;;36.13;33.55;;;6.30;79.70;;;;;;5093337;28;20616;-73
2022/04/21 05:04:02;;;;;;;35.20;32.72;;;6.40;79.80;;;;;;5094081;28;20391;-73
2022/04/21 05:06:29;;;;;;;36.17;33.53;;;6.40;79.70;;;;;;5093541;28;20340;-73
2022/04/21 05:08:58;;;;;;;38.22;35.63;;;6.40;79.90;;;;;;5093650;28;20584;-73
2022/04/21 05:11:25;;;;;;;33.95;31.77;;;6.40;80.00;;;;;;5092985;28;20200;-73
2022/04/21 05:13:54;;;;;;;36.50;33.90;;;6.50;80.00;;;;;;5093391;28;20221;-73
2022/04/21 05:16:21;;;;;;;36.72;34.22;;;6.50;79.70;;;;;;5092137;28;20266;-73
2022/04/21 05:18:49;;;;;;;34.88;32.53;;;6.60;79.50;;;;;;5093085;28;20574;-73
2022/04/21 05:21:17;;;;;;;35.72;33.30;;;6.70;79.20;;;;;;5093003;28;20639;-73
2022/04/21 05:23:47;;;;;;;36.67;33.65;;;6.80;78.70;;;;;;5093183;28;20217;-73
2022/04/21 05:26:15;;;;;;;35.92;33.63;;;6.90;78.30;;;;;;5093227;28;20203;-73
2022/04/21 05:28:43;;;;;;;36.45;34.05;;;6.80;78.70;;;;;;5093073;28;20200;-73
2022/04/21 05:31:11;;;;;;;39.85;37.15;;;6.80;79.00;;;;;;5092717;28;20201;-73
2022/04/21 05:33:39;;;;;;;39.20;36.22;;;7.00;78.80;;;;;;5093106;28;20272;-73
2022/04/21 05:36:07;;;;;;;39.70;36.60;;;7.10;78.40;;;;;;5093036;28;20690;-73
2022/04/21 05:38:34;;;;;;;37.60;34.80;;;7.20;78.30;;;;;;5093243;28;20204;-73
2022/04/21 05:41:03;;;;;;;39.60;36.72;;;7.30;78.20;;;;;;5093232;28;20202;-73
2022/04/21 05:43:38;;;;;;;37.25;34.63;;;7.40;77.50;;;;;;5093097;28;20221;-73
2022/04/21 05:46:06;;;;;;;35.78;33.42;;;7.50;77.30;;;;;;5092940;28;20202;-73
2022/04/21 05:48:35;;;;;;;38.28;35.58;;;7.60;77.10;;;;;;5092821;28;20675;-73
2022/04/21 05:51:03;;;;;;;38.25;35.55;;;7.70;76.90;;;;;;5092317;28;20278;-73
2022/04/21 05:53:36;;;;;;;35.95;33.45;;;7.80;76.80;;;;;;5092753;28;20304;-73
2022/04/21 05:56:05;;;;;;;38.83;35.75;;;7.90;76.40;;;;;;5092654;28;20344;-73
2022/04/21 05:58:32;;;;;;;36.88;34.25;;;8.00;76.20;;;;;;5092649;28;20206;-73
2022/04/21 06:01:02;;;;;;;36.95;34.47;;;8.10;76.00;;;;;;5092293;28;20301;-73
2022/04/21 06:03:29;;;;;;;41.42;38.83;;;8.20;75.60;;;;;;5092484;28;20222;-73
2022/04/21 06:05:57;;;;;;;39.47;36.35;;;8.30;75.10;;;;;;5092526;28;20204;-73
2022/04/21 06:08:24;;;;;;;38.13;35.53;;;8.30;74.80;;;;;;5092294;28;20196;-73
2022/04/21 06:10:51;;;;;;;40.58;37.67;;;8.50;74.70;;;;;;5091885;28;20195;-73
2022/04/21 06:13:18;;;;;;;41.80;38.65;;;8.60;74.10;;;;;;5092339;28;20634;-73
2022/04/21 06:15:45;;;;;;;39.67;36.92;;;8.60;73.80;;;;;;5092327;28;20269;-73
2022/04/21 06:18:12;;;;;;;39.80;36.90;;;8.80;73.70;;;;;;5091816;28;20260;-73
2022/04/21 06:20:40;;;;;;;42.28;39.35;;;9.00;73.10;;;;;;5091874;28;20214;-73
2022/04/21 06:23:08;;;;;;;41.25;38.45;;;9.20;72.40;;;;;;5092362;28;20228;-73
2022/04/21 06:25:36;;;;;;;42.42;39.33;;;9.30;71.70;;;;;;5092265;28;20202;-73
2022/04/21 06:28:04;;;;;;;41.60;38.15;;;9.30;71.80;;;;;;5091972;28;20203;-73
2022/04/21 06:30:31;;;;;;;40.80;37.70;;;9.30;71.50;;;;;;5091699;28;20195;-73
2022/04/21 06:32:59;;;;;;;40.38;37.78;;;9.40;71.10;;;;;;5092094;28;20320;-73
2022/04/21 06:35:26;;;;;;;40.55;37.30;;;9.50;70.70;;;;;;5092185;28;20314;-73
2022/04/21 06:37:53;;;;;;;40.55;37.53;;;9.60;70.30;;;;;;5092098;28;20203;-73
2022/04/21 06:40:22;;;;;;;41.67;38.67;;;9.70;70.10;;;;;;5091745;28;20287;-73
2022/04/21 06:42:49;;;;;;;41.42;38.35;;;9.80;69.70;;;;;;5092193;28;20292;-73
2022/04/21 06:48:04;;;;;;;40.65;37.75;;;9.90;69.10;;;;;;5092035;28;20199;-73
2022/04/21 06:50:35;;;;;;;41.58;38.55;;;10.00;69.10;;;;;;5091589;28;20195;-73
2022/04/21 06:53:02;;;;;;;41.47;38.63;;;9.90;68.40;;;;;;5092011;28;20226;-73
2022/04/21 06:55:31;;;;;;;40.45;37.40;;;9.90;68.80;;;;;;5091865;28;20681;-73
2022/04/21 06:57:58;;;;;;;40.13;37.13;;;10.10;68.20;;;;;;5091961;28;20191;-73
2022/04/21 07:00:26;;;;;;;42.80;39.72;;;10.30;67.50;;;;;;5091339;28;20225;-73
2022/04/21 07:02:54;;;;;;;40.85;38.05;;;10.30;67.40;;;;;;5091738;28;20711;-73
2022/04/21 07:05:22;;;;;;;39.72;36.92;;;10.40;67.50;;;;;;5091836;28;20256;-73
2022/04/21 07:07:50;;;;;;;41.53;38.65;;;10.40;67.40;;;;;;5091781;28;20204;-73
2022/04/21 07:10:17;;;;;;;39.17;36.38;;;10.60;67.00;;;;;;5091156;28;20196;-73
2022/04/21 07:12:47;;;;;;;42.05;39.15;;;10.60;66.90;;;;;;5091756;28;20200;-73
2022/04/21 07:15:14;;;;;;;40.47;37.72;;;10.40;67.20;;;;;;5091566;28;20702;-73
2022/04/21 07:17:42;;;;;;;42.95;40.00;;;10.40;67.50;;;;;;5091796;28;20192;-73
2022/04/21 07:20:11;;;;;;;40.70;37.80;;;10.30;67.90;;;;;;5090840;28;20278;-73
2022/04/21 07:22:39;;;;;;;39.90;36.70;;;10.60;67.40;;;;;;5091788;28;20893;-73
2022/04/21 07:25:08;;;;;;;38.75;36.05;;;10.80;66.40;;;;;;5091610;28;20452;-73
2022/04/21 07:27:36;;;;;;;40.45;37.65;;;10.80;65.90;;;;;;5091787;28;20200;-73
2022/04/21 07:30:05;;;;;;;38.50;35.70;;;11.00;65.10;;;;;;5091128;28;20241;-73
2022/04/21 07:32:32;;;;;;;41.87;38.67;;;10.90;65.30;;;;;;5091673;28;20457;-73
2022/04/21 07:35:00;;;;;;;39.80;37.10;;;10.90;64.80;;;;;;5091703;28;20529;-73
2022/04/21 07:37:27;;;;;;;40.40;37.30;;;10.80;65.70;;;;;;5091495;28;20452;-73
2022/04/21 07:39:54;;;;;;;38.70;35.90;;;10.80;65.70;;;;;;5092331;28;20540;-73
2022/04/21 07:42:21;;;;;;;39.30;36.50;;;11.00;65.50;;;;;;5095096;28;20453;-73
2022/04/21 07:44:48;;;;;;;39.80;36.90;;;11.20;65.20;;;;;;5094961;28;20522;-73
2022/04/21 07:47:17;;;;;;;41.30;37.97;;;11.40;64.40;;;;;;5095047;28;20923;-73
2022/04/21 07:49:48;;;;;;;41.53;38.73;;;11.50;64.00;;;;;;5094447;28;20499;-73
2022/04/21 07:55:15;;;;;;;38.63;35.83;;;11.50;64.00;;;;;;5094975;28;20973;-73
2022/04/21 07:57:43;;;;;;;38.37;35.77;;;11.70;63.70;;;;;;5094880;28;20939;-73
2022/04/21 08:00:11;;;;;;;39.37;36.63;;;11.50;63.60;;;;;;5094368;28;20516;-73
2022/04/21 08:02:41;;;;;;;39.33;36.57;;;11.60;63.60;;;;;;5094778;28;20839;-73
2022/04/21 08:05:09;;;;;;;41.27;38.20;;;11.80;63.00;;;;;;5094671;28;20460;-73
2022/04/21 08:07:36;;;;;;;38.40;36.00;;;11.80;63.10;;;;;;5094675;28;20454;-73
2022/04/21 08:10:04;;;;;;;37.60;34.97;;;11.90;62.80;;;;;;5094166;28;20479;-73
2022/04/21 08:12:39;;;;;;;35.20;32.90;;;11.90;62.80;;;;;;5094668;28;20451;-73
2022/04/21 08:15:07;;;;;;;37.40;34.90;;;11.90;62.20;;;;;;5094434;28;20453;-73
2022/04/21 08:17:36;;;;;;;36.90;34.47;;;11.90;62.40;;;;;;5094449;28;20992;-73
2022/04/21 08:20:08;;;;;;;39.97;37.47;;;11.90;62.60;;;;;;5093488;28;20850;-73
2022/04/21 08:22:35;;;;;;;39.40;36.17;;;12.00;62.80;;;;;;5094604;28;20460;-73
2022/04/21 08:33:16;;;;;;;37.73;35.33;;;12.50;61.60;;;;;;5094230;28;20453;-73
2022/04/21 08:35:46;;;;;;;38.97;36.00;;;12.50;61.10;;;;;;5094138;28;20488;-73
2022/04/21 08:38:12;;;;;;;36.60;34.30;;;12.50;61.20;;;;;;5094060;28;20536;-73
2022/04/21 08:40:46;;;;;;;38.50;35.77;;;12.60;60.70;;;;;;5093706;28;20459;-73
2022/04/21 08:43:15;;;;;;;36.20;33.80;;;12.50;60.50;;;;;;5094113;28;20542;-73
2022/04/21 08:45:44;;;;;;;38.50;35.90;;;12.50;60.30;;;;;;5093874;28;20499;-73
2022/04/21 08:48:12;;;;;;;36.53;34.17;;;12.70;60.10;;;;;;5093898;28;20819;-73
2022/04/21 08:50:40;;;;;;;37.40;34.93;;;12.60;60.40;;;;;;5093102;28;20450;-73
2022/04/21 08:53:09;;;;;;;38.53;35.83;;;12.80;59.60;;;;;;5094031;28;21220;-73
2022/04/21 08:55:36;;;;;;;36.90;34.30;;;12.90;59.90;;;;;;5093521;28;20952;-73
2022/04/21 08:58:04;;;;;;;36.07;33.73;;;13.00;59.50;;;;;;5093842;28;20485;-73
2022/04/21 09:00:32;;;;;;;37.80;35.20;;;13.10;59.30;;;;;;5093388;28;20822;-73
2022/04/21 09:02:59;;;;;;;37.40;35.00;;;13.30;58.50;;;;;;5093793;28;20469;-73
2022/04/21 09:05:28;;;;;;;37.30;34.80;;;13.20;58.70;;;;;;5093687;28;20458;-73
2022/04/21 09:07:56;;;;;;;36.33;33.93;;;13.20;58.70;;;;;;5093576;28;21018;-73
2022/04/21 09:10:26;;;;;;;35.93;33.53;;;13.20;58.60;;;;;;5092805;28;20519;-73
2022/04/21 09:12:56;;;;;;;34.30;32.00;;;13.20;58.60;;;;;;5093630;28;20557;-74
2022/04/21 09:15:25;;;;;;;37.27;34.33;;;13.20;57.40;;;;;;5093155;28;20504;-74
2022/04/21 09:17:53;;;;;;;35.00;32.73;;;13.40;57.50;;;;;;5093039;28;20986;-74
2022/04/21 09:20:23;;;;;;;35.60;33.30;;;13.40;57.10;;;;;;5092488;28;20458;-74
2022/04/21 09:22:54;;;;;;;36.07;33.77;;;13.50;56.20;;;;;;5093347;28;20470;-75
2022/04/21 09:25:24;;;;;;;35.17;32.97;;;13.60;56.50;;;;;;5093002;28;20458;-74
2022/04/21 09:27:51;;;;;;;36.47;34.07;;;13.90;56.70;;;;;;5093111;28;20627;-74
2022/04/21 09:30:19;;;;;;;35.43;33.03;;;13.90;56.60;;;;;;5092352;28;20453;-75
2022/04/21 09:32:55;;;;;;;34.83;32.43;;;14.20;55.90;;;;;;5093091;28;20544;-74
2022/04/21 09:35:24;;;;;;;36.10;33.80;;;14.30;55.60;;;;;;5092973;28;20457;-75
2022/04/21 09:37:53;;;;;;;34.00;31.80;;;14.40;55.50;;;;;;5092929;28;20490;-75
2022/04/21 09:40:22;;;;;;;37.13;34.63;;;14.30;55.30;;;;;;5092415;28;20471;-75
2022/04/21 09:42:55;;;;;;;36.37;33.90;;;14.40;55.20;;;;;;5092803;28;20573;-75
2022/04/21 09:48:23;;;;;;;35.17;32.87;;;14.70;54.80;;;;;;5092970;28;20460;-74
2022/04/21 09:50:55;;;;;;;34.03;31.73;;;14.80;54.90;;;;;;5092095;28;20930;-75
2022/04/21 09:53:24;;;;;;;35.43;33.10;;;14.90;54.30;;;;;;5092751;28;20474;-75
2022/04/21 09:55:52;;;;;;;35.40;33.00;;;14.80;54.30;;;;;;5092447;28;20470;-75
2022/04/21 09:58:20;;;;;;;36.07;33.63;;;14.90;54.30;;;;;;5092554;28;20544;-75
2022/04/21 10:00:48;;;;;;;37.57;35.27;;;14.80;54.10;;;;;;5091974;28;20544;-75
2022/04/21 10:03:15;;;;;;;35.20;32.63;;;14.90;54.10;;;;;;5092040;28;20506;-75
2022/04/21 10:05:42;;;;;;;33.70;31.50;;;14.90;53.80;;;;;;5092250;28;20458;-74
2022/04/21 10:08:11;;;;;;;33.30;31.20;;;14.90;53.60;;;;;;5092441;28;20458;-75
2022/04/21 10:10:40;;;;;;;33.67;31.30;;;14.80;53.70;;;;;;5091916;28;20449;-75
2022/04/21 10:13:08;;;;;;;32.90;30.60;;;14.90;53.70;;;;;;5092577;28;20476;-75
2022/04/21 10:15:38;;;;;;;33.07;30.87;;;15.00;53.70;;;;;;5092462;28;20468;-75
2022/04/21 10:18:07;;;;;;;34.90;32.70;;;15.20;53.00;;;;;;5092175;28;20449;-75
2022/04/21 10:20:35;;;;;;;35.00;32.70;;;15.20;52.90;;;;;;5091823;28;20458;-75
2022/04/21 10:23:03;;;;;;;34.67;32.37;;;15.30;52.90;;;;;;5092576;28;20479;-75
2022/04/21 10:25:38;;;;;;;34.37;32.27;;;15.20;52.80;;;;;;5092255;28;20450;-75
2022/04/21 10:28:35;;;;;;;33.33;31.23;;;15.30;53.00;;;;;;5092324;28;20519;-75
2022/04/21 10:31:31;;;;;;;32.53;30.50;;;15.60;52.80;;;;;;5091865;28;20881;-75
2022/04/21 10:34:01;;;;;;;33.73;31.53;;;16.00;52.20;;;;;;5092367;28;20474;-75
2022/04/21 10:36:41;;;;;;;33.83;31.63;;;15.90;51.80;;;;;;5092134;28;20565;-75
2022/04/21 10:39:12;;;;;;;34.17;31.97;;;15.90;51.50;;;;;;5091966;28;20457;-75
2022/04/21 10:41:39;;;;;;;32.27;30.27;;;15.90;51.70;;;;;;5092109;28;20884;-75
2022/04/21 10:44:14;;;;;;;33.27;31.10;;;15.80;52.10;;;;;;5092254;28;20474;-75
2022/04/21 10:46:42;;;;;;;34.53;32.33;;;15.60;52.80;;;;;;5092362;28;20789;-75
2022/04/21 10:49:10;;;;;;;33.00;30.90;;;15.50;53.00;;;;;;5091434;28;20463;-75
2022/04/21 10:58:52;;;;;;;31.60;29.70;;;15.30;53.60;;;;;;5092083;28;20479;-75
2022/04/21 11:01:35;;;;;;;32.73;30.63;;;15.10;54.20;;;;;;5091640;28;20468;-75
2022/04/21 11:04:20;;;;;;;32.97;30.90;;;15.10;54.40;;;;;;5091802;28;20541;-75
2022/04/21 11:06:50;;;;;;;32.57;30.33;;;15.20;54.10;;;;;;5091886;28;20448;-75
2022/04/21 11:09:43;;;;;;;34.60;32.00;;;15.30;54.30;;;;;;5091594;28;20507;-75
2022/04/21 11:12:12;;;;;;;32.00;29.63;;;15.80;53.00;;;;;;5092074;28;20510;-75
2022/04/21 11:14:40;;;;;;;32.53;30.53;;;15.90;52.80;;;;;;5094338;28;21141;-75
2022/04/21 11:17:08;;;;;;;32.20;30.20;;;16.20;52.60;;;;;;5095902;28;20477;-75
2022/04/21 11:19:52;;;;;;;33.27;31.30;;;16.50;51.70;;;;;;5094818;28;20548;-75
2022/04/21 11:22:37;;;;;;;31.13;29.23;;;16.80;51.20;;;;;;5096049;28;20449;-75
2022/04/21 11:25:06;;;;;;;32.80;30.80;;;17.00;51.00;;;;;;5095403;28;20450;-75
2022/04/21 11:27:37;;;;;;;30.97;29.17;;;17.10;50.40;;;;;;5095600;28;20484;-75
2022/04/21 11:30:06;;;;;;;32.30;30.30;;;17.20;50.30;;;;;;5095063;28;20449;-75
2022/04/21 11:32:33;;;;;;;31.33;29.30;;;17.00;50.90;;;;;;5095466;28;21013;-75
2022/04/21 11:35:05;;;;;;;30.43;28.53;;;17.20;50.40;;;;;;5095373;28;20452;-75
2022/04/21 11:37:52;;;;;;;30.67;28.87;;;17.20;50.50;;;;;;5095334;28;20843;-75
2022/04/21 11:40:23;;;;;;;31.00;28.93;;;17.50;49.80;;;;;;5094744;28;20943;-75
2022/04/21 11:42:51;;;;;;;30.23;28.23;;;17.40;49.80;;;;;;5095203;28;20982;-75
2022/04/21 11:45:23;;;;;;;28.73;27.03;;;17.50;50.20;;;;;;5095210;28;20503;-75
2022/04/21 11:47:50;;;;;;;30.30;28.50;;;17.60;49.80;;;;;;5095127;28;20818;-75
2022/04/21 11:50:22;;;;;;;32.13;30.00;;;17.70;49.60;;;;;;5094577;28;20969;-75
2022/04/21 11:52:52;;;;;;;30.40;28.47;;;17.70;49.50;;;;;;5094918;28;20473;-75
2022/04/21 11:55:20;;;;;;;29.00;27.30;;;17.50;49.90;;;;;;5095315;28;20442;-75
2022/04/21 11:57:48;;;;;;;29.20;27.50;;;17.90;49.80;;;;;;5094891;28;20469;-75
2022/04/21 12:00:17;;;;;;;30.20;28.40;;;18.40;48.40;;;;;;5094636;28;20461;-75
2022/04/21 12:08:20;;;;;;;28.50;26.70;;;18.70;47.60;;;;;;5083939;28;20548;-75
2022/04/21 12:10:47;;;;;;;29.00;27.10;;;19.00;47.10;;;;;;5094421;28;20450;-75
2022/04/21 12:13:16;;;;;;;28.60;27.00;;;18.80;46.50;;;;;;5094922;28;20476;-75
2022/04/21 12:15:42;;;;;;;27.87;26.27;;;18.90;46.60;;;;;;5094484;28;20465;-75
2022/04/21 12:18:10;;;;;;;27.50;25.90;;;19.00;46.20;;;;;;5094555;28;20584;-75
2022/04/21 12:20:53;;;;;;;27.10;25.60;;;18.70;46.60;;;;;;5093845;28;20480;-73
2022/04/21 12:23:25;;;;;;;30.27;28.57;;;18.60;46.50;;;;;;5094460;28;20477;-73
2022/04/21 12:25:52;;;;;;;27.10;25.50;;;18.30;47.30;;;;;;5093895;28;20954;-73
2022/04/21 12:28:19;;;;;;;26.93;25.43;;;18.20;47.20;;;;;;5094344;28;20519;-73
2022/04/21 12:30:46;;;;;;;28.07;26.37;;;18.10;47.50;;;;;;5094045;28;20458;-74
2022/04/21 12:33:13;;;;;;;25.93;24.43;;;18.30;46.20;;;;;;5094496;28;20552;-73
2022/04/21 12:35:46;;;;;;;26.63;25.13;;;18.40;46.80;;;;;;5094542;28;21029;-74
2022/04/21 12:41:00;;;;;;;27.43;25.90;;;18.50;45.50;;;;;;5093921;28;20946;-74
2022/04/21 12:43:29;;;;;;;26.93;25.43;;;18.80;45.30;;;;;;5094252;28;20480;-74
2022/04/21 12:45:57;;;;;;;26.67;25.17;;;19.10;45.10;;;;;;5094288;28;20457;-74
2022/04/21 12:48:25;;;;;;;26.33;24.90;;;19.60;44.20;;;;;;5094260;28;20450;-74
2022/04/21 12:50:54;;;;;;;26.47;24.97;;;20.00;43.20;;;;;;5093692;28;20506;-74
2022/04/21 12:53:29;;;;;;;28.80;27.10;;;20.50;42.20;;;;;;5094161;28;20564;-74
2022/04/21 12:55:56;;;;;;;28.10;26.50;;;21.10;41.20;;;;;;5094190;28;20452;-74
2022/04/21 12:58:31;;;;;;;27.00;25.40;;;21.10;41.10;;;;;;5094037;28;20858;-74
2022/04/21 13:01:02;;;;;;;30.63;29.13;;;21.00;41.00;;;;;;5093554;28;20853;-74
2022/04/21 13:03:30;;;;;;;28.00;26.60;;;20.50;41.10;;;;;;5093913;28;20477;-74
2022/04/21 13:05:59;;;;;;;27.07;25.57;;;20.20;42.40;;;;;;5094036;28;20481;-74
2022/04/21 13:08:27;;;;;;;25.37;24.07;;;20.40;42.10;;;;;;5093785;28;20533;-74
2022/04/21 13:10:56;;;;;;;27.47;25.90;;;20.80;41.90;;;;;;5093566;28;20931;-74
2022/04/21 13:13:23;;;;;;;25.83;24.43;;;20.80;42.00;;;;;;5093787;28;20482;-74
2022/04/21 13:15:51;;;;;;;25.03;23.70;;;20.50;42.60;;;;;;5093764;28;20462;-74
2022/04/21 13:18:18;;;;;;;27.33;25.83;;;20.50;42.60;;;;;;5093148;28;20509;-74
2022/04/21 13:23:32;;;;;;;28.27;26.47;;;20.20;42.80;;;;;;5093348;28;20456;-74
2022/04/21 13:25:59;;;;;;;26.57;25.10;;;20.10;42.50;;;;;;5093545;28;20452;-74
2022/04/21 13:28:26;;;;;;;25.67;24.27;;;19.90;43.20;;;;;;5093539;28;20487;-74
2022/04/21 13:33:34;;;;;;;29.17;27.37;;;20.00;44.20;;;;;;5093063;28;20491;-74
2022/04/21 13:36:02;;;;;;;27.30;25.67;;;19.60;45.10;;;;;;5093082;28;21009;-74
2022/04/21 13:38:29;;;;;;;27.43;25.93;;;19.30;45.60;;;;;;5092234;28;20839;-74
2022/04/21 13:40:57;;;;;;;27.03;25.53;;;19.10;46.20;;;;;;5092710;28;20526;-74
2022/04/21 13:43:26;;;;;;;28.43;26.83;;;19.10;46.20;;;;;;5092869;28;20476;-74